^^
Station Historical Data
Daily Summary for January 25, 2017 Units:  Metric    English   Both
« Previous Day
Next Day »
Daily Weekly Monthly Yearly Custom
  High: Low: Average:
Temperature: 32.5 °C 13.9 °C 21.2 °C
Dew Point: 11.4 °C -3.7 °C 7.9 °C
Humidity: 81% 13% 52%
Wind Speed: 25.9km/h 0km/h 8.2km/h
Wind Gust: 29km/h - -
Wind- - SSW
Pressure: 1012.1 hPa 1007.7 hPa -
Precipitation: 0 mm    
Historical Graphs
 
 
Tabular Data for January 25, 2017
Time Temperature Dew Point Pressure Wind Wind Speed Wind Gust Humidity Rainfall Rate (Hourly) solar Conditions
01:11 16.8 °C 11.3 °C 1010.4 hPa SSW 25.9 km/h 27.4 km/h 70% 0 mm 0.0 W/m2
01:16 16.7 °C 11.2 °C 1010.4 hPa SSW 19.5 km/h 27.4 km/h 70% 0 mm 0.0 W/m2
01:21 16.7 °C 11.4 °C 1010.4 hPa South 17.7 km/h 25.7 km/h 71% 0 mm 0.0 W/m2
01:26 16.6 °C 11.3 °C 1010.7 hPa SSW 17.7 km/h 29 km/h 71% 0 mm 0.0 W/m2
01:31 16.5 °C 11.4 °C 1010.4 hPa South 19.5 km/h 25.7 km/h 72% 0 mm 0.0 W/m2
01:46 16.2 °C 11.4 °C 1010.4 hPa SSW 16.3 km/h 27.4 km/h 73% 0 mm 0.0 W/m2
02:01 15.9 °C 11.3 °C 1010 hPa SSW 17.7 km/h 27.4 km/h 74% 0 mm 0.0 W/m2
02:11 15.8 °C 11.4 °C 1010.4 hPa SSW 24.1 km/h 25.7 km/h 75% 0 mm 0.0 W/m2
02:26 15.7 °C 11.3 °C 1010.4 hPa SSW 20.9 km/h 29 km/h 75% 0 mm 0.0 W/m2
02:36 15.6 °C 11.4 °C 1010.4 hPa SSW 17.7 km/h 22.5 km/h 76% 0 mm 0.0 W/m2
02:56 15.4 °C 11.4 °C 1010.4 hPa SSW 11.1 km/h 17.7 km/h 77% 0 mm 0.0 W/m2
03:11 15.3 °C 11.3 °C 1010.7 hPa SSW 16.3 km/h 17.7 km/h 77% 0 mm 0.0 W/m2
03:21 15.2 °C 11.2 °C 1010.4 hPa SSW 9.7 km/h 17.7 km/h 77% 0 mm 0.0 W/m2
03:32 15.2 °C 11.4 °C 1010.7 hPa SSW 19.5 km/h 19.5 km/h 78% 0 mm 0.0 W/m2
03:47 15 °C 11.4 °C 1010.4 hPa SSW 7.9 km/h 11.3 km/h 79% 0 mm 0.0 W/m2
03:57 14.9 °C 11.3 °C 1010.7 hPa SSW 11.1 km/h 14.5 km/h 79% 0 mm 0.0 W/m2
04:12 14.8 °C 11 °C 1010.7 hPa SSW 9.7 km/h 12.9 km/h 78% 0 mm 0.0 W/m2
04:22 14.8 °C 11 °C 1010.7 hPa SSW 13 km/h 14.5 km/h 78% 0 mm 0.0 W/m2
04:27 14.7 °C 10.9 °C 1010.7 hPa SSW 11.1 km/h 14.5 km/h 78% 0 mm 0.0 W/m2
04:37 14.7 °C 10.9 °C 1010.7 hPa SSW 9.7 km/h 16.1 km/h 78% 0 mm 0.0 W/m2
04:48 14.6 °C 10.8 °C 1010.7 hPa SSW 11.1 km/h 12.9 km/h 78% 0 mm 0.0 W/m2
05:02 14.5 °C 10.9 °C 1011.1 hPa SSW 6.4 km/h 11.3 km/h 79% 0 mm 0.0 W/m2
05:07 14.4 °C 10.8 °C 1011.4 hPa SSW 7.9 km/h 8 km/h 79% 0 mm 0.0 W/m2
05:13 14.4 °C 11 °C 1011.1 hPa SSW 6.4 km/h 8 km/h 80% 0 mm 0.0 W/m2
05:18 14.3 °C 11.1 °C 1011.4 hPa SSW 7.9 km/h 8 km/h 81% 0 mm 0.0 W/m2
05:23 14.3 °C 11.1 °C 1011.1 hPa SSW 4.7 km/h 6.4 km/h 81% 0 mm 0.0 W/m2
05:28 14.2 °C 11 °C 1011.4 hPa Calm     81% 0 mm 0.0 W/m2
05:33 14.1 °C 10.9 °C 1011.4 hPa SSW 9.7 km/h 11.3 km/h 81% 0 mm 0.0 W/m2
05:38 14 °C 10.8 °C 1011.4 hPa SSW 11.1 km/h 11.3 km/h 81% 0 mm 0.0 W/m2
05:43 14 °C 10.6 °C 1011.4 hPa SSW 11.1 km/h 14.5 km/h 80% 0 mm 0.0 W/m2
05:48 14.1 °C 10.7 °C 1011.4 hPa SSW 11.1 km/h 12.9 km/h 80% 0 mm 0.0 W/m2
05:58 14 °C 10.4 °C 1011.4 hPa SSW 9.7 km/h 12.9 km/h 79% 0 mm 0.0 W/m2
06:15 14 °C 10 °C 1011.4 hPa SSW 16.3 km/h 20.9 km/h 77% 0 mm 0.0 W/m2
06:21 14 °C 10.2 °C 1011.4 hPa SSW 13 km/h 17.7 km/h 78% 0 mm 5.0 W/m2
06:33 13.9 °C 10.3 °C 1011.7 hPa SW 11.1 km/h 12.9 km/h 79% 0 mm 16.0 W/m2
06:48 14.1 °C 10.5 °C 1011.7 hPa SW 9.7 km/h 11.3 km/h 79% 0 mm 39.0 W/m2
06:53 14.1 °C 10.3 °C 1011.7 hPa SW 9.7 km/h 14.5 km/h 78% 0 mm 33.0 W/m2
07:04 14.1 °C 10.3 °C 1011.7 hPa SW 7.9 km/h 14.5 km/h 78% 0 mm 28.0 W/m2
07:10 14.1 °C 10.3 °C 1012.1 hPa SW 11.1 km/h 14.5 km/h 78% 0 mm 28.0 W/m2
07:22 14.7 °C 10.3 °C 1012.1 hPa SW 11.1 km/h 12.9 km/h 75% 0 mm 181.0 W/m2
07:31 14.9 °C 10.5 °C 1012.1 hPa SW 9.7 km/h 12.9 km/h 75% 0 mm 206.0 W/m2
07:42 15.3 °C 10.3 °C 1012.1 hPa SSW 7.9 km/h 14.5 km/h 72% 0 mm 251.0 W/m2
07:47 15.6 °C 10.1 °C 1012.1 hPa SSW 13 km/h 16.1 km/h 70% 0 mm 288.0 W/m2
07:54 15.6 °C 10.1 °C 1012.1 hPa SSW 13 km/h 16.1 km/h 70% 0 mm 288.0 W/m2
08:02 16.1 °C 10 °C 1011.7 hPa SSW 13 km/h 19.3 km/h 67% 0 mm 352.0 W/m2
08:25 16.4 °C 9.6 °C 1012.1 hPa SSW 9.7 km/h 16.1 km/h 64% 0 mm 406.0 W/m2
08:33 16.8 °C 9.5 °C 1012.1 hPa SW 13 km/h 16.1 km/h 62% 0 mm 438.0 W/m2
08:40 16.8 °C 9.5 °C 1012.1 hPa SW 13 km/h 16.1 km/h 62% 0 mm 438.0 W/m2
08:54 17.5 °C 9.4 °C 1012.1 hPa SW 11.1 km/h 16.1 km/h 59% 0 mm 513.0 W/m2
09:09 18.2 °C 9 °C 1011.7 hPa SW 11.1 km/h 14.5 km/h 55% 0 mm 566.0 W/m2
09:19 18.5 °C 9.3 °C 1011.7 hPa SW 14.3 km/h 16.1 km/h 55% 0 mm 599.0 W/m2
09:32 18.9 °C 9.7 °C 1011.7 hPa SW 14.3 km/h 14.5 km/h 55% 0 mm 631.0 W/m2
11:37 24.4 °C 8.4 °C 1011.7 hPa Calm     36% 0 mm 949.0 W/m2
11:47 24.8 °C 8.3 °C 1011.7 hPa Calm     35% 0 mm 967.0 W/m2
11:56 25.3 °C 7.9 °C 1011.7 hPa Calm     33% 0 mm 984.0 W/m2
12:12 25.9 °C 8.4 °C 1011.7 hPa Calm     33% 0 mm 993.0 W/m2
12:27 26.8 °C 7.3 °C 1011.4 hPa Calm     29% 0 mm 1009.0 W/m2
12:50 27 °C 7.4 °C 1011.1 hPa Calm     29% 0 mm 1009.0 W/m2
12:57 27.3 °C 8.2 °C 1011.1 hPa Calm     30% 0 mm 1013.0 W/m2
13:18 27.9 °C 7.2 °C 1010.7 hPa Calm     27% 0 mm 1011.0 W/m2
13:23 27.9 °C 6.6 °C 1010.7 hPa Calm     26% 0 mm 1007.0 W/m2
13:40 28.7 °C 7.3 °C 1010.7 hPa Calm     26% 0 mm 1004.0 W/m2
13:56 28.5 °C 6.6 °C 1010.4 hPa Calm   4.8 km/h 25% 0 mm 991.0 W/m2
14:04 28.8 °C 6.8 °C 1010.4 hPa SSW 3.2 km/h 4.8 km/h 25% 0 mm 976.0 W/m2
14:19 29.4 °C 6.7 °C 1010 hPa Calm     24% 0 mm 954.0 W/m2
14:42 29.9 °C 6.5 °C 1009.7 hPa SSW 4.7 km/h 8 km/h 23% 0 mm 933.0 W/m2
14:57 30.3 °C 5.5 °C 1009.7 hPa Calm     21% 0 mm 909.0 W/m2
15:05 30.5 °C 4.3 °C 1009.7 hPa Calm     19% 0 mm 872.0 W/m2
15:20 31.1 °C 4.8 °C 1009.4 hPa South 1.4 km/h 14.5 km/h 19% 0 mm 838.0 W/m2
15:35 30.9 °C 3.8 °C 1009.4 hPa Calm     18% 0 mm 796.0 W/m2
15:46 31.2 °C 3.3 °C 1009 hPa South 4.7 km/h 8 km/h 17% 0 mm 772.0 W/m2
15:51 31.5 °C 4.3 °C 1009 hPa SSW 6.4 km/h 11.3 km/h 18% 0 mm 759.0 W/m2
15:56 31.6 °C 3.6 °C 1009 hPa Calm   4.8 km/h 17% 0 mm 745.0 W/m2
16:06 31.8 °C 3.7 °C 1008.7 hPa SSW 6.4 km/h 14.5 km/h 17% 0 mm 712.0 W/m2
16:17 31.8 °C 3.7 °C 1008.7 hPa Calm     17% 0 mm 679.0 W/m2
16:38 32.1 °C 2.2 °C 1008.4 hPa SSW 4.7 km/h 6.4 km/h 15% 0 mm 636.0 W/m2
16:42 32.3 °C 2.4 °C 1008.4 hPa Calm     15% 0 mm 606.0 W/m2
16:52 32.1 °C 1.2 °C 1008 hPa Calm   4.8 km/h 14% 0 mm 570.0 W/m2
17:03 32.2 °C 1.3 °C 1008 hPa Calm     14% 0 mm 533.0 W/m2
17:08 32.2 °C 2.3 °C 1008 hPa Calm   12.9 km/h 15% 0 mm 513.0 W/m2
17:13 32.3 °C 2.4 °C 1008 hPa SSW 9.7 km/h 9.7 km/h 15% 0 mm 496.0 W/m2
17:18 32.5 °C 2.5 °C 1007.7 hPa SSW 13 km/h 14.5 km/h 15% 0 mm 478.0 W/m2
17:23 32.4 °C 2.4 °C 1007.7 hPa SSW 3.2 km/h 12.9 km/h 15% 0 mm 462.0 W/m2
17:28 32.4 °C 1.5 °C 1007.7 hPa SSW 11.1 km/h 14.5 km/h 14% 0 mm 445.0 W/m2
21:45 27.1 °C -3.7 °C 1010.4 hPa South 4.7 km/h 8 km/h 13% 0 mm 0.0 W/m2
22:07 26.7 °C -1.2 °C 1010.4 hPa South 7.9 km/h 8 km/h 16% 0 mm 0.0 W/m2
22:20 26.2 °C -0.8 °C 1010.4 hPa South 6.4 km/h 6.4 km/h 17% 0 mm 0.0 W/m2
22:29 26.2 °C 0 °C 1010.7 hPa Calm     18% 0 mm 0.0 W/m2
22:36 26.1 °C -0.1 °C 1010.7 hPa Calm     18% 0 mm 0.0 W/m2
22:46 25.3 °C 3.9 °C 1010.4 hPa Calm     25% 0 mm 0.0 W/m2
Canyon Roadhouse, Fishriver Canyon, Namibia
Compliments of Weather Underground - 2 mb